Time;durP1;ratioP1;P1;durP2;ratioP2;P2;SDS_P1;SDS_P2;PMS_P1;PMS_P2;Temp;Humidity;BMP_temperature;BMP_pressure;BME280_temperature;BME280_humidity;BME280_pressure;Samples;Min_cycle;Max_cycle;Signal;HPM_P1;HPM_P2
2021/05/17 00:00:12;;;;;;;4.22;1.58;;;8.00;99.90;;;6.56;100.00;99812.91;4848764;27;20089;-81
2021/05/17 00:02:37;;;;;;;5.35;1.20;;;8.00;99.90;;;6.49;100.00;99808.88;4875956;27;20483;-82
2021/05/17 00:05:00;;;;;;;4.13;1.40;;;7.90;99.90;;;6.42;100.00;99815.31;4838878;27;20082;-81
2021/05/17 00:07:24;;;;;;;3.17;1.83;;;7.80;99.90;;;6.32;100.00;99812.22;4850071;28;22094;-82
2021/05/17 00:09:47;;;;;;;4.32;1.27;;;7.80;99.90;;;6.31;100.00;99807.94;4834778;28;20085;-81
2021/05/17 00:12:14;;;;;;;3.85;0.98;;;7.80;99.90;;;6.26;100.00;99803.81;4828352;28;20094;-81
2021/05/17 00:14:37;;;;;;;2.90;1.17;;;7.70;99.90;;;6.17;100.00;99810.28;4823803;28;20177;-80
2021/05/17 00:17:00;;;;;;;2.22;1.25;;;7.70;99.90;;;6.18;100.00;99806.75;4831823;28;20136;-81
2021/05/17 00:19:25;;;;;;;5.78;1.60;;;7.70;99.90;;;6.16;100.00;99805.97;4842733;28;20089;-81
2021/05/17 00:21:49;;;;;;;2.07;1.33;;;7.70;99.90;;;6.17;100.00;99794.59;4828361;28;20079;-81
2021/05/17 00:24:16;;;;;;;2.40;1.23;;;7.70;99.90;;;6.20;100.00;99791.00;4831111;28;20490;-78
2021/05/17 00:26:39;;;;;;;3.08;1.45;;;7.70;99.90;;;6.20;100.00;99791.88;4845098;28;20090;-82
2021/05/17 00:29:03;;;;;;;3.58;1.58;;;7.60;99.90;;;6.16;100.00;99792.91;4850477;28;20087;-82
2021/05/17 00:31:26;;;;;;;2.83;1.35;;;7.70;99.90;;;6.15;100.00;99794.69;4874002;28;20452;-82
2021/05/17 00:33:50;;;;;;;3.40;1.38;;;;;;;6.08;100.00;99785.38;4837712;28;20142;-82
2021/05/17 00:36:15;;;;;;;3.97;1.35;;;7.50;99.90;;;5.99;100.00;99791.00;4833209;28;20079;-81
2021/05/17 00:38:38;;;;;;;5.80;1.90;;;;;;;5.95;100.00;99789.44;4842969;28;20081;-80
2021/05/17 00:41:01;;;;;;;8.70;2.47;;;7.50;99.90;;;5.94;100.00;99788.59;4839929;27;20088;-81
2021/05/17 00:43:32;;;;;;;4.25;1.58;;;7.40;99.90;;;5.89;100.00;99789.66;4843568;28;20083;-81
2021/05/17 00:45:55;;;;;;;4.32;1.10;;;7.30;99.90;;;5.74;100.00;99780.72;4843942;28;20165;-82
2021/05/17 00:48:20;;;;;;;5.85;1.00;;;7.10;99.90;;;5.53;100.00;99785.06;4844872;28;20513;-82
2021/05/17 00:50:43;;;;;;;2.95;1.25;;;7.00;99.90;;;5.44;100.00;99783.69;4847915;28;20088;-80
2021/05/17 00:53:08;;;;;;;1.70;0.80;;;6.90;99.90;;;5.41;100.00;99783.78;4847295;28;20079;-82
2021/05/17 00:55:31;;;;;;;2.03;1.10;;;6.90;99.90;;;5.37;100.00;99786.59;4842344;28;20078;-81
2021/05/17 00:57:55;;;;;;;1.15;0.93;;;6.90;99.90;;;5.35;100.00;99790.09;4859234;28;20090;-81
2021/05/17 01:00:23;;;;;;;10.27;1.30;;;6.90;99.90;;;5.38;100.00;99778.72;4850364;28;20098;-82
2021/05/17 01:02:46;;;;;;;4.57;1.23;;;6.90;99.90;;;5.37;100.00;99784.81;4851283;27;20438;-81
2021/05/17 01:05:11;;;;;;;5.25;1.90;;;6.90;99.90;;;5.38;100.00;99796.13;4824250;27;20607;-82
2021/05/17 01:07:37;;;;;;;1.65;0.75;;;6.90;99.90;;;5.32;100.00;99787.63;4851203;28;20086;-82
2021/05/17 01:10:02;;;;;;;0.40;0.40;;;6.70;99.90;;;5.06;100.00;99782.59;4848037;28;20091;-82
2021/05/17 01:12:26;;;;;;;0.90;0.40;;;6.40;99.90;;;4.93;100.00;99792.66;4835502;28;20094;-81
2021/05/17 01:14:51;;;;;;;1.27;0.60;;;6.40;99.90;;;4.87;100.00;99785.06;4834398;28;20134;-82
2021/05/17 01:17:15;;;;;;;18.17;1.05;;;6.30;99.90;;;4.85;100.00;99784.25;4833358;28;20552;-80
2021/05/17 01:19:43;;;;;;;33.83;1.27;;;6.30;99.90;;;4.78;100.00;99780.19;4850544;27;20087;-78
2021/05/17 01:22:12;;;;;;;0.95;0.50;;;6.20;99.90;;;4.69;100.00;99784.84;4849999;28;20079;-82
2021/05/17 01:24:38;;;;;;;5.82;0.60;;;6.20;99.90;;;4.66;100.00;99784.09;4835575;28;20596;-82
2021/05/17 01:27:01;;;;;;;2.53;0.88;;;6.20;99.90;;;4.64;100.00;99781.53;4841470;28;20097;-80
2021/05/17 01:29:24;;;;;;;1.00;0.60;;;6.20;99.90;;;4.63;100.00;99785.06;4843565;28;20079;-82
2021/05/17 01:31:48;;;;;;;1.30;0.73;;;6.20;99.90;;;4.67;100.00;99797.09;4844419;28;20101;-82
2021/05/17 01:34:14;;;;;;;1.27;0.70;;;6.20;99.90;;;4.68;100.00;99782.28;4843240;28;20088;-82
2021/05/17 01:36:37;;;;;;;;;;;6.20;99.90;;;4.69;100.00;99773.56;4844051;28;20087;-81
2021/05/17 01:39:01;;;;;;;0.90;0.60;;;6.30;99.90;;;4.72;100.00;99776.88;4835498;28;19968;-81
2021/05/17 01:41:26;;;;;;;6.63;1.08;;;6.40;99.90;;;4.84;100.00;99772.16;4851278;28;20553;-81
2021/05/17 01:43:53;;;;;;;1.63;0.87;;;6.40;99.90;;;4.90;100.00;99772.75;4855136;28;20082;-82
2021/05/17 01:46:18;;;;;;;1.48;0.57;;;6.50;99.90;;;4.94;100.00;99776.06;4847807;27;20650;-81
2021/05/17 01:48:43;;;;;;;0.45;0.45;;;6.50;99.90;;;4.98;100.00;99784.66;4830718;28;20158;-82
2021/05/17 01:51:12;;;;;;;10.93;0.90;;;6.50;99.90;;;5.01;100.00;99774.06;4834669;28;20086;-81
2021/05/17 01:53:38;;;;;;;0.60;0.60;;;6.50;99.90;;;5.00;100.00;99775.00;4852534;28;20095;-82
2021/05/17 01:56:02;;;;;;;2.83;0.90;;;6.60;99.90;;;5.07;100.00;99779.91;4853415;28;20099;-81
2021/05/17 01:58:26;;;;;;;3.05;1.00;;;6.70;99.90;;;5.20;100.00;99776.81;4847877;28;20090;-81
2021/05/17 02:00:49;;;;;;;3.28;1.88;;;6.90;99.90;;;5.35;100.00;99768.38;4848973;28;20210;-81
2021/05/17 02:03:14;;;;;;;4.32;1.42;;;;;;;5.54;100.00;99774.53;4851689;28;20080;-82
2021/05/17 02:05:37;;;;;;;3.25;1.42;;;7.00;99.90;;;5.48;100.00;99777.41;4852230;28;20165;-81
2021/05/17 02:08:03;;;;;;;3.13;1.92;;;7.00;99.90;;;5.39;100.00;99775.16;4842841;28;20086;-81
2021/05/17 02:10:26;;;;;;;;;;;6.90;99.90;;;5.27;100.00;99773.91;4846424;28;20088;-81
2021/05/17 02:12:49;;;;;;;2.47;1.67;;;6.70;99.90;;;5.16;100.00;99772.63;4830388;28;19995;-82
2021/05/17 02:15:16;;;;;;;1.63;1.40;;;6.70;99.90;;;5.15;100.00;99777.00;4834112;28;23492;-82
2021/05/17 02:17:40;;;;;;;4.00;1.63;;;6.70;99.90;;;5.11;100.00;99778.03;4851856;28;20786;-82
2021/05/17 02:20:04;;;;;;;3.03;1.92;;;6.70;99.90;;;5.23;100.00;99774.94;4844149;28;20080;-82
2021/05/17 02:22:28;;;;;;;2.85;1.65;;;6.80;99.90;;;5.30;100.00;99772.94;4831675;28;20122;-81
2021/05/17 02:24:51;;;;;;;4.80;1.88;;;6.80;99.90;;;5.24;100.00;99766.19;4834275;28;20082;-82
2021/05/17 02:27:16;;;;;;;2.85;1.40;;;6.70;99.90;;;5.07;100.00;99766.84;4832852;28;20091;-82
2021/05/17 02:29:39;;;;;;;55.75;1.65;;;6.50;99.90;;;4.85;100.00;99766.00;4843374;28;20102;-82
2021/05/17 02:32:04;;;;;;;33.65;0.70;;;;;;;4.67;100.00;99768.41;4847359;28;20086;-81
2021/05/17 02:34:27;;;;;;;5.57;0.45;;;6.20;99.90;;;4.61;100.00;99765.19;4832412;28;20112;-81
2021/05/17 02:36:51;;;;;;;1.23;0.70;;;6.10;99.90;;;4.50;100.00;99769.03;4832215;28;20077;-82
2021/05/17 02:39:16;;;;;;;2.60;0.98;;;6.10;99.90;;;4.46;100.00;99771.81;4832682;28;20080;-81
2021/05/17 02:41:42;;;;;;;1.90;0.88;;;6.10;99.90;;;4.55;100.00;99768.00;4836276;28;20087;-81
2021/05/17 02:44:07;;;;;;;2.60;1.90;;;6.30;99.90;;;4.74;100.00;99761.19;4836640;28;20101;-82
2021/05/17 02:46:30;;;;;;;4.78;1.90;;;6.40;99.90;;;4.89;100.00;99764.97;4830173;28;20135;-80
2021/05/17 02:48:55;;;;;;;2.10;1.48;;;;;;;4.87;100.00;99769.41;4836290;28;20083;-81
2021/05/17 02:51:18;;;;;;;6.93;1.73;;;6.40;99.90;;;4.87;100.00;99772.00;4843513;28;20104;-82
2021/05/17 02:54:15;;;;;;;5.00;2.00;;;6.50;99.90;;;5.02;100.00;99774.03;4842708;28;20086;-81
2021/05/17 02:57:05;;;;;;;0.88;0.70;;;6.50;99.90;;;4.96;100.00;99776.88;4841924;28;20536;-81
2021/05/17 03:00:01;;;;;;;1.35;0.60;;;6.40;99.90;;;4.77;100.00;99763.66;4841228;28;20168;-82
2021/05/17 03:02:31;;;;;;;1.10;0.70;;;6.20;99.90;;;4.72;100.00;99770.84;4842328;28;20092;-81
2021/05/17 03:04:59;;;;;;;3.95;1.10;;;6.40;99.90;;;4.90;100.00;99774.50;4829872;28;20519;-80
2021/05/17 03:07:25;;;;;;;2.25;1.20;;;6.50;99.90;;;5.02;100.00;99775.78;4837122;28;20444;-80
2021/05/17 03:09:48;;;;;;;2.13;1.10;;;6.50;99.90;;;4.93;100.00;99771.78;4848936;28;20125;-79
2021/05/17 03:12:12;;;;;;;1.70;0.60;;;6.40;99.90;;;4.83;100.00;99771.28;4841645;28;20136;-81
2021/05/17 03:14:36;;;;;;;5.28;0.70;;;6.30;99.90;;;4.63;100.00;99777.25;4830525;28;20091;-80
2021/05/17 03:17:01;;;;;;;2.03;0.70;;;6.20;99.90;;;4.59;100.00;99780.03;4841960;28;20086;-81
2021/05/17 03:19:24;;;;;;;2.05;0.60;;;6.20;99.90;;;4.66;100.00;99774.50;4830764;27;20095;-81
2021/05/17 03:21:50;;;;;;;0.88;0.63;;;6.30;99.90;;;4.75;100.00;99785.50;4847863;27;20102;-80
2021/05/17 03:24:14;;;;;;;1.70;0.80;;;6.30;99.90;;;4.81;100.00;99790.50;4847908;28;20565;-81
2021/05/17 03:26:38;;;;;;;2.22;1.27;;;6.50;99.90;;;4.94;100.00;99789.13;4844844;27;20088;-78
2021/05/17 03:29:00;;;;;;;1.05;0.80;;;6.50;99.90;;;4.96;100.00;99782.09;4851134;27;22249;-82
2021/05/17 03:31:23;;;;;;;8.63;0.55;;;6.40;99.90;;;4.76;100.00;99792.44;4829378;28;20528;-80
2021/05/17 03:33:46;;;;;;;0.28;0.28;;;6.20;99.90;;;4.60;100.00;99800.84;4830367;28;20091;-81
2021/05/17 03:36:09;;;;;;;0.40;0.30;;;6.00;99.90;;;4.55;100.00;99792.31;4846433;28;20445;-81
2021/05/17 03:38:33;;;;;;;1.23;0.30;;;6.10;99.90;;;4.58;100.00;99788.75;4844555;28;20141;-80
2021/05/17 03:40:56;;;;;;;0.32;0.20;;;6.10;99.90;;;4.60;100.00;99793.00;4848374;27;20135;-81
2021/05/17 03:43:19;;;;;;;0.50;0.40;;;6.20;99.90;;;4.73;100.00;99790.81;4852050;27;20118;-82
2021/05/17 03:45:42;;;;;;;3.05;1.30;;;6.30;99.90;;;4.90;100.00;99792.75;4853571;27;20132;-81
2021/05/17 03:48:05;;;;;;;4.65;0.80;;;6.60;99.90;;;5.22;100.00;99793.28;4833793;28;20090;-82
2021/05/17 03:50:28;;;;;;;1.60;0.98;;;6.90;99.90;;;5.44;100.00;99791.53;4849212;28;20155;-80
2021/05/17 03:52:53;;;;;;;4.18;1.08;;;7.10;99.90;;;5.69;100.00;99795.72;4823746;28;20087;-81
2021/05/17 03:55:17;;;;;;;11.93;0.70;;;;;;;5.43;100.00;99802.84;4832296;28;20087;-82
2021/05/17 03:57:40;;;;;;;12.43;0.70;;;6.80;99.90;;;5.25;100.00;99804.44;4828818;28;20433;-81
2021/05/17 04:00:08;;;;;;;7.15;1.30;;;6.80;99.90;;;5.38;100.00;99804.81;4838478;28;20197;-82
2021/05/17 04:02:31;;;;;;;1.65;1.00;;;7.20;99.90;;;5.89;100.00;99814.03;4852814;28;21594;-82
2021/05/17 04:05:02;;;;;;;8.45;1.35;;;7.80;99.90;;;6.69;100.00;99812.38;4829394;28;20127;-80
2021/05/17 04:07:53;;;;;;;2.72;1.50;;;9.00;99.90;;;7.94;97.98;99805.50;4832358;28;20089;-82
2021/05/17 04:13:22;;;;;;;1.10;0.90;;;11.40;99.90;;;9.73;86.96;99812.53;4843649;28;20046;-82
2021/05/17 04:15:45;;;;;;;0.70;0.63;;;11.50;99.90;;;9.75;87.77;99815.94;4843766;28;20057;-83
2021/05/17 04:18:08;;;;;;;1.50;0.80;;;11.60;99.90;;;9.91;86.38;99809.78;4835065;28;20054;-82
2021/05/17 04:20:31;;;;;;;0.85;0.80;;;12.10;99.90;;;10.71;85.65;99811.13;4827263;28;20049;-82
2021/05/17 04:22:54;;;;;;;0.70;0.70;;;12.90;99.90;;;11.65;81.79;99813.09;4830677;28;20066;-82
2021/05/17 04:25:17;;;;;;;0.77;0.73;;;13.60;99.90;;;11.71;79.58;99812.69;4847122;28;20489;-81
2021/05/17 04:27:40;;;;;;;2.30;1.45;;;14.00;99.90;;;12.37;78.08;99813.56;4849344;28;20034;-82
2021/05/17 04:30:04;;;;;;;4.25;1.13;;;13.60;99.90;;;12.17;78.66;99814.09;4852363;28;20684;-81
2021/05/17 04:32:27;;;;;;;6.07;1.67;;;12.90;99.90;;;11.46;80.22;99816.09;4825518;28;20493;-81
2021/05/17 04:34:49;;;;;;;1.52;1.42;;;12.60;99.90;;;11.22;82.82;99816.72;4844882;28;20050;-81
2021/05/17 04:37:12;;;;;;;2.00;1.40;;;12.30;99.90;;;10.96;83.25;99814.88;4834185;28;20512;-80
2021/05/17 04:39:35;;;;;;;1.63;1.35;;;;;;;10.75;83.96;99823.16;4836632;28;20054;-81
2021/05/17 04:41:59;;;;;;;2.75;1.58;;;11.80;99.90;;;10.61;84.48;99820.56;4852769;28;20048;-81
2021/05/17 04:44:22;;;;;;;3.75;1.70;;;11.70;99.90;;;10.06;88.01;99822.91;4851166;28;20203;-82
2021/05/17 04:46:45;;;;;;;2.22;1.60;;;11.60;99.90;;;10.45;87.51;99821.50;4833612;28;20079;-82
2021/05/17 04:49:08;;;;;;;5.38;1.83;;;12.10;99.90;;;11.18;86.34;99828.38;4835108;28;20050;-82
2021/05/17 04:51:30;;;;;;;3.08;2.03;;;12.90;99.90;;;11.95;84.68;99825.25;4845266;28;20564;-81
2021/05/17 04:53:54;;;;;;;4.78;1.48;;;13.60;99.90;;;12.51;80.47;99831.94;4845072;28;20042;-82
2021/05/17 04:56:19;;;;;;;3.53;2.05;;;13.90;99.90;;;12.92;79.37;99827.38;4853323;28;20131;-83
2021/05/17 04:58:43;;;;;;;2.80;1.70;;;14.30;99.90;;;13.21;78.90;99829.75;4850280;28;20046;-83
2021/05/17 05:01:06;;;;;;;2.42;1.52;;;14.30;99.90;;;13.16;78.75;99837.16;4844891;28;20053;-83
2021/05/17 05:03:29;;;;;;;5.55;1.77;;;14.10;99.90;;;12.96;78.40;99838.56;4834278;28;20054;-82
2021/05/17 05:05:52;;;;;;;5.93;1.83;;;13.80;99.90;;;12.60;80.48;99834.91;4839522;28;20048;-82
2021/05/17 05:08:15;;;;;;;4.82;1.77;;;13.40;99.90;;;12.18;81.41;99852.72;4851176;27;20049;-82
2021/05/17 05:10:37;;;;;;;3.22;1.65;;;13.00;99.90;;;11.80;83.88;99846.38;4850734;27;20045;-82
2021/05/17 05:13:06;;;;;;;4.63;1.80;;;12.60;99.90;;;11.47;85.21;99857.34;4849337;27;20054;-82
2021/05/17 05:15:30;;;;;;;2.45;1.80;;;11.90;99.90;;;10.78;88.96;99862.50;4854760;27;20092;-82
2021/05/17 05:17:52;;;;;;;5.90;2.55;;;11.30;99.90;;;10.37;92.12;99857.09;4851919;27;20042;-82
2021/05/17 05:20:16;;;;;;;4.28;2.05;;;11.10;99.90;;;10.06;93.06;99864.13;4841590;27;20688;-82
2021/05/17 05:22:38;;;;;;;5.90;2.15;;;11.00;99.90;;;9.94;94.68;99860.44;4849311;27;20105;-80
2021/05/17 05:25:01;;;;;;;3.65;2.38;;;10.80;99.90;;;9.75;95.91;99847.47;4852911;27;25064;-82
2021/05/17 05:27:27;;;;;;;9.38;2.33;;;10.70;99.90;;;9.73;96.47;99853.75;4852239;27;20053;-82
2021/05/17 05:30:02;;;;;;;6.00;2.85;;;10.80;99.90;;;9.81;96.67;99856.81;4845443;28;20125;-82
2021/05/17 05:32:29;;;;;;;5.93;2.60;;;;;;;9.79;97.02;99856.06;4847562;28;20053;-81
2021/05/17 05:34:52;;;;;;;5.72;2.53;;;10.90;99.90;;;9.95;96.52;99850.75;4830249;28;20042;-82
2021/05/17 05:37:15;;;;;;;7.63;2.72;;;11.00;99.90;;;10.10;96.01;99854.28;4839926;28;20069;-82
2021/05/17 05:39:38;;;;;;;5.72;2.42;;;11.10;99.90;;;10.25;95.03;99856.00;4840616;28;20091;-80
2021/05/17 05:42:01;;;;;;;5.47;2.92;;;11.20;99.90;;;10.27;94.12;99854.13;4843197;27;20052;-80
2021/05/17 05:44:24;;;;;;;6.90;2.65;;;11.20;99.90;;;10.28;94.45;99855.84;4842879;28;20077;-81
2021/05/17 05:46:46;;;;;;;7.78;2.60;;;11.20;99.90;;;10.34;94.38;99844.94;4844045;28;20420;-81
2021/05/17 05:49:11;;;;;;;5.32;2.45;;;11.40;99.90;;;10.45;93.89;99855.72;4843719;28;20050;-83
2021/05/17 05:51:34;;;;;;;4.40;2.20;;;11.60;99.90;;;10.59;94.36;99854.88;4854388;28;20140;-83
2021/05/17 05:53:57;;;;;;;5.00;2.50;;;11.70;99.90;;;10.76;93.72;99853.00;4839523;28;20052;-82
2021/05/17 05:56:21;;;;;;;9.32;2.33;;;12.00;99.90;;;11.06;92.56;99853.72;4830833;28;20112;-83
2021/05/17 05:58:45;;;;;;;5.88;2.25;;;12.10;99.90;;;10.79;91.65;99858.06;4832857;28;20042;-83
2021/05/17 06:01:09;;;;;;;5.03;2.10;;;12.10;99.90;;;10.99;92.40;99862.09;4832305;28;20123;-84
2021/05/17 06:03:33;;;;;;;4.97;2.40;;;12.10;99.90;;;11.03;93.69;99858.34;4839926;28;20042;-82
2021/05/17 06:05:56;;;;;;;7.97;2.50;;;12.40;99.90;;;11.49;91.14;99864.19;4833870;28;20046;-83
2021/05/17 06:08:20;;;;;;;6.13;2.42;;;12.80;99.90;;;11.70;88.87;99867.25;4832556;28;20053;-83
2021/05/17 06:10:43;;;;;;;4.05;2.00;;;12.60;99.90;;;10.87;90.75;99867.19;4834352;28;20041;-83
2021/05/17 06:13:06;;;;;;;6.75;2.40;;;12.10;99.90;;;10.58;92.35;99874.25;4833797;28;20046;-82
2021/05/17 06:15:31;;;;;;;8.82;2.40;;;11.70;99.90;;;10.18;94.32;99871.31;4832363;28;20046;-80
2021/05/17 06:17:54;;;;;;;6.40;2.15;;;;;;;10.08;94.82;99880.66;4833685;28;20057;-84
2021/05/17 06:20:19;;;;;;;10.02;2.75;;;11.40;99.90;;;10.10;95.30;99883.22;4829921;28;20061;-83
2021/05/17 06:22:43;;;;;;;6.93;2.45;;;11.50;99.90;;;10.35;96.20;99880.88;4830980;28;20529;-82
2021/05/17 06:25:09;;;;;;;3.92;2.53;;;11.60;99.90;;;10.44;94.90;99882.94;4830483;28;20099;-83
2021/05/17 06:27:33;;;;;;;5.60;2.63;;;11.50;99.90;;;10.55;95.20;99878.84;4829898;28;20042;-82
2021/05/17 06:29:58;;;;;;;11.20;3.47;;;11.80;99.90;;;10.58;93.53;99881.28;4833065;28;20057;-84
2021/05/17 06:32:23;;;;;;;2.67;2.03;;;11.80;99.90;;;10.62;93.22;99880.16;4843318;28;20054;-82
2021/05/17 06:34:50;;;;;;;5.72;2.10;;;11.90;99.90;;;10.72;94.00;99876.03;4832891;28;20405;-83
2021/05/17 06:37:13;;;;;;;5.03;2.33;;;12.10;99.90;;;11.08;92.24;99878.19;4841293;28;20089;-83
2021/05/17 06:39:36;;;;;;;8.82;2.50;;;12.40;99.90;;;11.33;90.38;99870.53;4852641;28;20061;-83
2021/05/17 06:42:00;;;;;;;6.95;2.42;;;12.80;99.90;;;11.93;88.97;99879.91;4837458;28;20074;-85
2021/05/17 06:44:24;;;;;;;3.35;2.13;;;13.20;99.90;;;12.13;87.62;99870.66;4830834;28;20056;-82
2021/05/17 06:46:47;;;;;;;6.10;2.08;;;13.30;99.90;;;12.37;86.91;99870.81;4838626;28;20041;-83
2021/05/17 06:49:11;;;;;;;6.35;2.20;;;13.60;99.90;;;12.50;85.84;99875.16;4831047;28;20058;-79
2021/05/17 06:51:35;;;;;;;4.40;1.50;;;13.80;99.90;;;12.90;84.96;99872.41;4832320;28;20508;-83
2021/05/17 06:54:00;;;;;;;3.75;1.55;;;14.00;99.90;;;12.88;82.49;99876.09;4840378;28;20049;-84
2021/05/17 06:56:28;;;;;;;4.85;1.70;;;13.80;99.90;;;12.70;84.64;99872.94;4851735;28;20041;-83
2021/05/17 06:58:56;;;;;;;6.20;2.15;;;13.90;99.90;;;12.98;83.18;99869.22;4835800;28;20545;-88
2021/05/17 07:01:20;;;;;;;5.47;1.88;;;14.10;99.90;;;13.05;82.86;99881.06;4840935;28;20046;-83
2021/05/17 07:03:43;;;;;;;3.03;1.35;;;14.50;99.90;;;13.89;80.19;99876.81;4838884;28;20101;-85
2021/05/17 07:06:09;;;;;;;5.00;1.50;;;15.70;99.90;;;15.38;73.23;99873.31;4832631;28;20668;-85
2021/05/17 07:13:55;;;;;;;3.90;1.48;;;18.40;99.90;;;18.54;65.64;99870.84;4849180;28;20054;-86
2021/05/17 07:16:18;;;;;;;6.07;1.58;;;18.70;99.90;;;18.24;62.21;99870.06;4848205;28;20049;-86
2021/05/17 07:18:41;;;;;;;5.65;1.40;;;17.90;99.90;;;16.89;65.40;99874.13;4846350;28;20057;-87
2021/05/17 07:23:46;;;;;;;5.55;1.15;;;15.70;99.90;;;14.42;74.71;99879.00;4831663;28;20046;-84
2021/05/17 07:26:14;;;;;;;4.18;1.25;;;15.40;99.90;;;14.54;73.85;99882.56;4831525;28;20076;-84
2021/05/17 07:28:37;;;;;;;2.97;1.42;;;15.50;99.90;;;14.71;74.05;99883.94;4840779;28;20042;-85
2021/05/17 07:31:03;;;;;;;8.20;1.58;;;15.60;99.90;;;14.73;74.68;99872.25;4832163;28;20051;-84
2021/05/17 07:33:26;;;;;;;6.60;1.17;;;16.30;99.90;;;16.56;70.01;99872.50;4841217;28;20489;-86
2021/05/17 07:35:49;;;;;;;3.05;1.17;;;18.10;99.90;;;18.66;62.97;99866.22;4826591;27;20047;-86
2021/05/17 07:38:13;;;;;;;3.72;1.33;;;18.50;99.90;;;16.47;66.12;99881.25;4832888;28;20054;-83
2021/05/17 07:40:36;;;;;;;5.13;1.60;;;18.50;99.90;;;18.53;67.96;99877.19;4843480;28;20042;-87
2021/05/17 07:42:59;;;;;;;2.92;1.20;;;19.90;99.90;;;19.83;57.44;99879.88;4844773;28;20509;-87
2021/05/17 07:45:23;;;;;;;6.63;1.45;;;;;;;19.61;56.40;99875.78;4823113;28;20061;-83
2021/05/17 07:47:46;;;;;;;3.40;1.05;;;19.30;99.90;;;18.48;60.86;99886.59;4823931;28;20050;-87
2021/05/17 07:50:11;;;;;;;3.03;1.10;;;18.90;99.90;;;18.16;59.01;99891.25;4826824;28;20050;-85
2021/05/17 07:52:34;;;;;;;6.00;1.33;;;18.50;99.90;;;17.75;62.72;99893.16;4842925;28;20050;-86
2021/05/17 07:54:57;;;;;;;4.72;1.38;;;17.70;99.90;;;16.40;66.20;99902.19;4839075;28;20429;-84
2021/05/17 07:57:19;;;;;;;3.63;1.30;;;16.90;99.90;;;15.32;68.78;99905.63;4832133;27;20048;-86
2021/05/17 07:59:43;;;;;;;6.43;1.45;;;16.10;99.90;;;14.84;72.27;99900.56;4838127;28;20044;-84
2021/05/17 08:02:06;;;;;;;6.05;1.77;;;16.20;99.90;;;15.58;68.77;99900.88;4831987;28;20061;-84
2021/05/17 08:04:29;;;;;;;3.72;1.30;;;16.10;99.90;;;14.91;71.17;99907.06;4836297;28;20135;-86
2021/05/17 08:06:53;;;;;;;7.65;1.50;;;15.90;99.90;;;15.12;72.87;99904.56;4841108;28;20506;-85
2021/05/17 08:09:16;;;;;;;3.20;1.30;;;;;;;16.17;69.37;99902.28;4832464;28;20497;-83
2021/05/17 08:11:39;;;;;;;9.55;1.67;;;16.90;99.90;;;16.63;67.44;99912.69;4839721;28;20393;-86
2021/05/17 08:14:01;;;;;;;8.43;1.52;;;16.80;99.90;;;15.98;68.42;99907.44;4838612;28;20396;-85
2021/05/17 08:16:24;;;;;;;4.15;1.58;;;17.20;99.90;;;17.21;64.54;99905.03;4837805;28;20042;-86
2021/05/17 08:18:48;;;;;;;5.70;1.92;;;17.50;99.90;;;17.47;63.42;99909.91;4838423;28;20170;-87
2021/05/17 08:21:13;;;;;;;3.95;1.48;;;17.80;99.90;;;17.50;64.91;99896.34;4829277;28;20042;-81
2021/05/17 08:23:38;;;;;;;3.33;1.48;;;17.80;99.90;;;17.25;63.83;99897.63;4831920;28;20050;-86
2021/05/17 08:26:01;;;;;;;2.92;0.90;;;17.80;99.90;;;17.16;64.18;99904.63;4829894;28;20046;-82
2021/05/17 08:28:24;;;;;;;7.25;1.45;;;17.50;99.90;;;15.98;65.27;99912.75;4832050;28;20057;-84
2021/05/17 08:30:53;;;;;;;3.90;1.40;;;18.10;99.90;;;18.38;61.35;99908.78;4831930;28;20042;-83
2021/05/17 08:33:16;;;;;;;2.15;1.05;;;20.60;99.90;;;20.69;51.26;99911.38;4841418;28;20050;-86
2021/05/17 08:35:41;;;;;;;3.88;1.45;;;20.00;99.90;;;20.33;52.50;99907.03;4845403;28;20049;-89
2021/05/17 08:38:05;;;;;;;2.05;0.90;;;19.60;99.90;;;19.90;54.04;99912.16;4838035;28;20042;-83
2021/05/17 08:40:28;;;;;;;3.13;0.95;;;20.10;99.90;;;19.83;51.28;99909.25;4833205;28;20042;-89
2021/05/17 08:42:51;;;;;;;3.60;1.30;;;20.20;99.90;;;19.75;55.60;99906.50;4847325;28;20061;-86
2021/05/17 08:45:15;;;;;;;4.63;1.20;;;20.00;99.90;;;19.11;58.23;99908.19;4844634;28;20054;-85
2021/05/17 08:47:38;;;;;;;5.50;1.17;;;20.50;99.90;;;19.97;51.25;99907.88;4847388;28;20068;-86
2021/05/17 08:50:01;;;;;;;6.63;1.27;;;20.70;99.90;;;19.59;54.09;99914.28;4837938;28;20340;-88
2021/05/17 08:52:25;;;;;;;4.30;1.00;;;;;;;18.05;57.32;99918.00;4831050;28;20069;-85
2021/05/17 08:54:49;;;;;;;5.03;0.88;;;;;;;20.25;54.21;99915.81;4831222;28;20122;-80
2021/05/17 09:00:43;;;;;;;3.28;1.17;;;20.10;99.90;;;19.23;57.09;99917.69;4850535;28;20037;-87
2021/05/17 09:03:24;;;;;;;4.97;1.00;;;20.10;99.90;;;18.24;56.58;99912.69;4802807;28;20049;-86
2021/05/17 09:05:48;;;;;;;4.15;1.08;;;18.90;99.90;;;17.71;57.41;99909.53;4797593;28;20121;-84
2021/05/17 09:08:12;;;;;;;4.22;1.17;;;;;;;17.50;58.18;99910.47;4788897;28;20062;-87
2021/05/17 09:11:01;;;;;;;4.60;1.00;;;18.10;99.90;;;16.40;64.62;99928.78;4794895;28;20129;-83
2021/05/17 09:13:29;;;;;;;3.05;1.10;;;17.30;99.90;;;15.84;61.50;99927.16;4792927;28;20042;-82
2021/05/17 09:16:23;;;;;;;6.00;0.88;;;17.00;99.90;;;15.75;62.27;99919.97;4850550;28;20141;-86
2021/05/17 09:19:32;;;;;;;8.13;1.00;;;16.70;99.90;;;15.18;68.10;99924.44;4793735;28;20061;-83
2021/05/17 09:22:35;;;;;;;4.60;1.10;;;16.40;99.90;;;15.14;67.11;99920.31;4816085;27;20046;-86
2021/05/17 09:39:31;;;;;;;2.47;0.85;;;16.10;99.90;;;14.96;68.55;99934.06;4785155;28;20058;-85
2021/05/17 09:42:11;;;;;;;3.92;0.90;;;15.90;99.90;;;14.93;68.08;99936.13;4796218;28;20050;-84
2021/05/17 09:44:54;;;;;;;4.28;1.05;;;15.90;99.90;;;15.05;66.76;99944.91;4805158;27;20902;-86
2021/05/17 09:47:23;;;;;;;3.28;0.75;;;16.00;99.90;;;15.09;63.96;99946.38;4794638;28;20153;-86
2021/05/17 10:48:31;;;;;;;4.95;1.00;;;18.00;99.90;;;17.84;63.86;99958.09;4817556;28;20048;-80
2021/05/17 10:51:50;;;;;;;5.93;0.82;;;18.10;99.90;;;17.74;65.26;99955.38;4806345;28;20524;-84
2021/05/17 10:54:33;;;;;;;2.65;0.88;;;17.90;99.90;;;17.87;59.14;99956.97;4830451;28;20056;-83
2021/05/17 10:57:18;;;;;;;3.00;0.88;;;18.20;99.90;;;18.42;60.33;99957.28;4819987;28;20065;-83
2021/05/17 11:02:28;;;;;;;3.63;1.38;;;18.90;99.90;;;18.20;58.60;99959.25;4877063;28;20057;-83
2021/05/17 11:04:58;;;;;;;2.38;0.80;;;18.80;99.90;;;18.23;57.88;99958.16;4876732;28;20132;-84
2021/05/17 11:07:29;;;;;;;1.30;0.50;;;18.60;99.90;;;17.67;58.34;99964.88;4895405;28;20048;-82
2021/05/17 11:10:13;;;;;;;4.80;1.10;;;19.00;99.90;;;18.16;58.53;99968.53;4862855;28;20049;-83
2021/05/17 11:13:00;;;;;;;3.45;0.90;;;18.70;99.90;;;17.22;59.64;99971.41;4861920;28;20411;-84
2021/05/17 11:15:25;;;;;;;5.13;0.90;;;17.70;99.90;;;16.68;62.69;99974.28;4861383;28;20069;-83
2021/05/17 11:18:19;;;;;;;3.03;0.77;;;17.60;99.90;;;16.69;62.39;99981.28;4864406;28;20083;-84
2021/05/17 11:20:51;;;;;;;1.60;0.82;;;17.40;99.90;;;16.19;65.66;99981.84;4845943;28;20073;-84
2021/05/17 11:23:19;;;;;;;2.28;0.60;;;17.10;99.90;;;15.72;64.56;99984.75;4858745;28;20037;-84
2021/05/17 11:25:51;;;;;;;4.32;0.85;;;16.80;99.90;;;15.73;67.53;99986.41;4864134;28;20072;-84
2021/05/17 11:28:15;;;;;;;3.50;0.80;;;16.60;99.90;;;15.39;72.49;99990.88;4860537;28;20045;-83
2021/05/17 11:30:39;;;;;;;2.45;0.82;;;16.40;99.90;;;15.27;72.18;99987.38;4864316;28;20060;-84
2021/05/17 11:33:16;;;;;;;6.35;1.10;;;16.00;99.90;;;14.23;76.13;99990.75;4864531;28;20491;-84
2021/05/17 11:36:01;;;;;;;4.07;1.10;;;15.40;99.90;;;13.99;75.15;99996.06;4863288;28;20443;-85
2021/05/17 11:38:26;;;;;;;2.28;0.90;;;15.20;99.90;;;13.86;79.97;100003.19;4863617;28;20056;-82
2021/05/17 11:40:50;;;;;;;2.15;0.82;;;15.30;99.90;;;14.11;76.51;99994.34;4863005;28;20057;-82
2021/05/17 11:43:13;;;;;;;4.75;1.10;;;15.60;99.90;;;14.90;76.31;99992.88;4862428;28;20083;-82
2021/05/17 11:45:37;;;;;;;2.75;0.95;;;16.00;99.90;;;15.25;71.78;99999.03;4864044;28;20049;-81
2021/05/17 11:48:01;;;;;;;2.33;0.88;;;16.00;99.90;;;14.89;73.56;99996.47;4865270;28;20129;-81
2021/05/17 11:50:24;;;;;;;9.45;1.02;;;15.80;99.90;;;14.84;73.56;100000.41;4863418;28;20041;-82